Time;durP1;ratioP1;P1;durP2;ratioP2;P2;SDS_P1;SDS_P2;PMS_P1;PMS_P2;Temp;Humidity;BMP_temperature;BMP_pressure;BME280_temperature;BME280_humidity;BME280_pressure;Samples;Min_cycle;Max_cycle;Signal;HPM_P1;HPM_P2
2022/04/21 00:11:17;;;;;;;34.73;20.50;;;;;;;-149.40;100.00;119126.13;4167494;84;28570;-81
2022/04/21 06:35:56;;;;;;;;;;;;;;;-149.40;100.00;119126.13;4186625;84;28533;-76
2022/04/21 06:52:32;;;;;;;27.52;16.80;;;;;;;-149.40;100.00;119126.13;4223184;84;20191;-78
2022/04/21 07:23:04;;;;;;;27.75;16.55;;;;;;;-149.40;100.00;119126.13;4161924;85;28571;-79
2022/04/21 16:26:48;;;;;;;18.80;11.97;;;;;;;-149.40;100.00;119126.13;4110562;85;28518;-76
2022/04/21 16:32:56;;;;;;;22.50;16.20;;;;;;;;;;4583360;76;268568;-79
2022/04/21 16:38:57;;;;;;;16.62;10.98;;;;;;;;;;4541769;78;28523;-79
2022/04/21 16:44:58;;;;;;;17.60;11.38;;;;;;;;;;4543243;78;28499;-78
2022/04/21 16:51:00;;;;;;;16.45;11.63;;;;;;;;;;4544977;78;28498;-78
2022/04/21 16:57:01;;;;;;;16.25;11.50;;;;;;;;;;4543709;78;28513;-77
2022/04/21 17:09:06;;;;;;;18.42;12.10;;;;;;;;;;4458024;80;28528;-75
2022/04/21 17:15:07;;;;;;;17.92;12.40;;;;;;;;;;4458023;80;28500;-77
2022/04/21 17:21:08;;;;;;;22.45;12.90;;;;;;;;;;4457792;80;28509;-76
2022/04/21 17:27:09;;;;;;;19.45;12.95;;;;;;;;;;4458418;79;28492;-77
2022/04/21 17:33:10;;;;;;;19.85;12.65;;;;;;;;;;4480476;79;28595;-76
2022/04/21 17:39:11;;;;;;;17.37;12.35;;;;;;;;;;4482025;79;28548;-77
2022/04/21 17:45:12;;;;;;;19.30;12.80;;;;;;;;;;4529462;78;28561;-77
2022/04/21 17:51:13;;;;;;;18.95;12.45;;;;;;;;;;4564105;78;28530;-77
2022/04/21 17:57:14;;;;;;;19.07;11.65;;;;;;;;;;4564748;78;28530;-78
2022/04/21 18:03:15;;;;;;;15.30;9.90;;;;;;;;;;4562785;78;28526;-78
2022/04/21 18:09:16;;;;;;;18.40;11.48;;;;;;;;;;4562824;78;28513;-78
2022/04/21 18:15:17;;;;;;;20.90;11.95;;;;;;;;;;4563062;78;28536;-77
2022/04/21 18:21:20;;;;;;;18.62;12.07;;;;;;;;;;4565829;78;28462;-80
2022/04/21 18:27:21;;;;;;;19.48;12.50;;;;;;;;;;4562505;78;28520;-78
2022/04/21 18:33:22;;;;;;;22.73;13.65;;;;;;;;;;4540670;78;28509;-74
2022/04/21 18:39:23;;;;;;;23.55;14.60;;;;;;;;;;4525167;77;28501;-74
2022/04/21 18:45:26;;;;;;;27.60;15.13;;;;;;;;;;4541373;77;28518;-74
2022/04/21 18:51:27;;;;;;;25.02;14.63;;;;;;;;;;4542530;78;28562;-75
2022/04/21 18:58:23;;;;;;;22.13;13.25;;;;;;;;;;4543470;77;28478;-73
2022/04/21 19:03:31;;;;;;;19.70;12.25;;;;;;;;;;4542130;78;28560;-75
2022/04/21 19:15:51;;;;;;;21.55;12.60;;;;;;;;;;4509941;78;28519;-76
2022/04/21 19:21:52;;;;;;;23.62;13.43;;;;;;;;;;4547467;77;28538;-77
2022/04/21 19:27:57;;;;;;;28.15;16.70;;;;;;;;;;4556033;78;28479;-80
2022/04/21 19:34:03;;;;;;;25.43;15.40;;;;;;;;;;4568675;78;28538;-79
2022/04/21 19:40:04;;;;;;;30.80;16.85;;;;;;;;;;4540157;78;28506;-81
2022/04/21 19:46:07;;;;;;;26.87;15.43;;;;;;;;;;4569375;78;28487;-79
2022/04/21 19:52:11;;;;;;;25.40;15.20;;;;;;;;;;4569163;78;28483;-79
2022/04/21 19:58:12;;;;;;;33.25;17.87;;;;;;;;;;4567587;78;28506;-78
2022/04/21 20:04:13;;;;;;;31.27;19.50;;;;;;;;;;4394057;81;28505;-79
2022/04/21 20:10:14;;;;;;;34.13;20.80;;;;;;;;;;4402813;81;28484;-80
2022/04/21 20:16:15;;;;;;;34.15;20.35;;;;;;;;;;4434090;80;28545;-80
2022/04/21 20:22:19;;;;;;;34.88;20.45;;;;;;;;;;4475174;80;28461;-80
2022/04/21 20:28:20;;;;;;;31.20;19.35;;;;;;;;;;4445559;80;28527;-80
2022/04/21 20:34:21;;;;;;;35.52;19.12;;;;;;;;;;4370623;81;28490;-80
2022/04/21 20:40:23;;;;;;;35.15;21.10;;;;;;;;;;4371493;81;28548;-79
2022/04/21 20:46:24;;;;;;;37.53;22.17;;;;;;;;;;4370380;81;28511;-80
2022/04/21 20:52:24;;;;;;;35.43;21.17;;;;;;;;;;4361299;82;28480;-80
2022/04/21 20:58:28;;;;;;;36.35;21.65;;;;;;;;;;4361428;82;28508;-79
2022/04/21 21:04:37;;;;;;;32.35;19.40;;;;;;;;;;4448917;80;28466;-80
2022/04/21 21:10:33;;;;;;;34.35;20.62;;;;;;;;;;4452266;80;28513;-79
2022/04/21 21:16:34;;;;;;;34.33;19.75;;;;;;;;;;4462402;80;28489;-78
2022/04/21 21:22:37;;;;;;;33.85;19.60;;;;;;;;;;4461977;80;28461;-78
2022/04/21 21:28:38;;;;;;;34.92;21.30;;;;;;;;;;4460461;79;28517;-78
2022/04/21 21:34:39;;;;;;;34.43;19.95;;;;;;;;;;4459395;80;28532;-79
2022/04/21 21:40:39;;;;;;;35.43;20.95;;;;;;;;;;4459768;80;28470;-78
2022/04/21 21:46:40;;;;;;;31.50;19.70;;;;;;;;;;4459232;80;28957;-79
2022/04/21 21:52:55;;;;;;;34.95;20.55;;;;;;;;;;4458534;80;28462;-78
2022/04/21 21:58:56;;;;;;;35.50;18.77;;;;;;;;;;4456418;80;44252;-78
2022/04/21 22:04:58;;;;;;;32.33;18.25;;;;;;;;;;4450791;80;28545;-78
2022/04/21 22:10:59;;;;;;;33.23;20.10;;;;;;;;;;4450573;80;28578;-80
2022/04/21 22:17:00;;;;;;;37.67;20.95;;;;;;;;;;4451455;80;28484;-79
2022/04/21 22:23:01;;;;;;;35.10;20.08;;;;;;;;;;4452216;80;28478;-79
2022/04/21 22:29:02;;;;;;;34.63;20.37;;;;;;;;;;4402900;80;28527;-80
2022/04/21 22:35:03;;;;;;;39.90;22.55;;;;;;;;;;4389659;81;28461;-78
2022/04/21 22:41:05;;;;;;;32.38;18.42;;;;;;;;;;4390727;81;28507;-78
2022/04/21 22:47:06;;;;;;;29.02;18.10;;;;;;;;;;4391806;81;28480;-77
2022/04/21 22:53:08;;;;;;;35.98;20.32;;;;;;;;;;4393087;81;28469;-79
2022/04/21 22:59:09;;;;;;;32.63;19.40;;;;;;;;;;4392749;81;28543;-78
2022/04/21 23:05:10;;;;;;;31.45;18.80;;;;;;;;;;4393112;81;28496;-79
2022/04/21 23:17:22;;;;;;;33.02;19.82;;;;;;;;;;4381488;81;28447;-79
2022/04/21 23:23:24;;;;;;;30.37;17.87;;;;;;;;;;4390436;81;28482;-78
2022/04/21 23:29:27;;;;;;;32.98;19.40;;;;;;;;;;4387332;81;28526;-77
2022/04/21 23:35:27;;;;;;;33.33;18.95;;;;;;;;;;4375352;81;28541;-78
2022/04/21 23:41:28;;;;;;;31.17;19.45;;;;;;;;;;4375638;81;28531;-80
2022/04/21 23:47:29;;;;;;;31.73;18.48;;;;;;;;;;4373171;81;28496;-80
2022/04/21 23:53:30;;;;;;;28.62;17.40;;;;;;;;;;4374544;81;28545;-78
2022/04/21 23:59:31;;;;;;;31.17;18.62;;;;;;;;;;4377108;81;28527;-79
